Resultados de RENTAL GRANDE PREMIO / PROVA 4 - 16:00
KARTODROMO INTERNACIONAL GRANJA VIANA KGV RACE TRACKS - CIRCUITO 105
Resultados de RENTAL - GRANDE PREMIO / PROVA 4 - 16:00


Pos No. Nome Classe Comentários Voltas Total Tempo Melhor Tempo na volta. Diff Espaço Melhor Veloc.
1 024 ELISSON GANDOLFO RENTAL 25 18:14.260 42.750 23 61,979
2 038 GUSTAVO ARIEL RENTAL 25 18:27.929 43.189 15 13.669 13.669 61,349
3 004 FLAVIO ALVES RENTAL 25 18:28.377 42.950 21 14.117 0.448 61,690
4 017 ALFREDO SALVAIA RENTAL 25 18:28.458 42.779 18 14.198 0.081 61,937
5 014 PAULO SANT'ANNA RENTAL 25 18:28.629 43.243 15 14.369 0.171 61,272
6 005 RICARDO TALARICO RENTAL 25 18:28.841 43.116 18 14.581 0.212 61,453
7 021 SIDNEY ROGERIO RENTAL 25 18:29.231 42.859 23 14.971 0.390 61,821
8 009 GUILHERME NETO RENTAL 25 18:29.402 42.919 22 15.142 0.171 61,735
9 001 SAULO RIGHI RENTAL 25 18:29.559 43.068 18 15.299 0.157 61,521
10 002 MARCELO HAYASAKA RENTAL 25 18:31.881 43.152 20 17.621 2.322 61,402
11 012 HELIO JR RENTAL 25 18:36.412 43.041 22 22.152 4.531 61,560
12 025 ALEX CAMPO RENTAL 25 18:36.841 43.006 18 22.581 0.429 61,610
13 026 ALEXANDRE FERNANDES RENTAL 25 18:37.185 43.188 24 22.925 0.344 61,350
14 033 RODRIGO CHAFICK RENTAL 25 18:37.888 42.795 25 23.628 0.703 61,914
15 037 FABIO NAKIRI RENTAL 25 18:40.346 43.293 22 26.086 2.458 61,202
16 019 EDER SANTOS RENTAL 25 18:44.327 43.408 23 30.067 3.981 61,039
17 020 MARCELO MESQUITA RENTAL 25 18:45.000 43.136 24 30.740 0.673 61,424
18 036 ANDRE MANSANO RENTAL TP 25 18:52.847 43.160 17 38.587 7.847 61,390
19 039 MAROS NUNES RENTAL 25 18:52.934 43.609 24 38.674 0.087 60,758
20 016 KLEBER BARBAROTTI RENTAL 25 18:53.068 43.587 24 38.808 0.134 60,789
21 032 PAULO DAVID RENTAL 25 18:54.279 43.596 24 40.019 1.211 60,776
22 040 BRUNO TAIAR RENTAL 25 18:56.235 43.766 25 41.975 1.956 60,540
23 008 DAGMAR VIANA RENTAL 13.634 0 25 Voltas 25 Voltas -
Gerada em 01/06/2019 16:45